This is the latest recevied weather packets stored in our database for station/object OK1JIL-13. If no packets are shown the sender has not sent any weather packets the latest 10 day(s).
| Time | Temp. | Humidity | Pressure | Rain* | Wind** | Luminosity | Snow |
|---|---|---|---|---|---|---|---|
| 1777210381 | 9.44° C | 31% | 1022.5 hPa | - | - | - | - |
| 1777209781 | 9.44° C | 32% | 1022.6 hPa | - | - | - | - |
| 1777209181 | 10° C | 31% | 1022.6 hPa | - | - | - | - |
| 1777208581 | 8.89° C | 34% | 1022.7 hPa | - | - | - | - |
| 1777207981 | 8.89° C | 34% | 1022.6 hPa | - | - | - | - |
| 1777207381 | 8.89° C | 32% | 1022.5 hPa | - | - | - | - |
| 1777206781 | 8.89° C | 33% | 1022.7 hPa | - | - | - | - |
| 1777206181 | 8.33° C | 34% | 1022.7 hPa | - | - | - | - |
| 1777205581 | 9.44° C | 32% | 1022.7 hPa | - | - | - | - |
| 1777204981 | 9.44° C | 33% | 1022.6 hPa | - | - | - | - |
| 1777204381 | 10° C | 31% | 1022.7 hPa | - | - | - | - |
| 1777203781 | 10° C | 33% | 1022.5 hPa | - | - | - | - |
| 1777203181 | 9.44° C | 32% | 1022.4 hPa | - | - | - | - |
| 1777202581 | 8.89° C | 33% | 1022.5 hPa | - | - | - | - |
| 1777201981 | 8.89° C | 31% | 1022.3 hPa | - | - | - | - |
| 1777201381 | 10° C | 32% | 1022.3 hPa | - | - | - | - |
| 1777200781 | 8.33° C | 33% | 1022.3 hPa | - | - | - | - |
| 1777200182 | 10° C | 30% | 1022.1 hPa | - | - | - | - |
| 1777199581 | 10° C | 29% | 1022 hPa | - | - | - | - |
| 1777198981 | 11.11° C | 29% | 1022 hPa | - | - | - | - |
| 1777198381 | 11.11° C | 26% | 1021.8 hPa | - | - | - | - |
| 1777197781 | 10.56° C | 30% | 1021.8 hPa | - | - | - | - |
| 1777197181 | 8.33° C | 34% | 1021.9 hPa | - | - | - | - |
| 1777196581 | 10° C | 28% | 1021.7 hPa | - | - | - | - |
| 1777195981 | 9.44° C | 31% | 1021.7 hPa | - | - | - | - |
* Rain since midnight (hover to see other rain measurements)
** Current wind speed in m/s (hover to see current wind gust speed)